This is the latest recevied weather packets stored in our database for station/object KO4YAW. If no packets are shown the sender has not sent any weather packets the latest 10 day(s).
| Time | Temp. | Humidity | Pressure | Rain* | Wind** | Luminosity | Snow |
|---|---|---|---|---|---|---|---|
| 1788221021 | 28.89° C | 29% | 1019.5 hPa | 0 mm | - | 80 W/m² | - |
| 1788220121 | 30.56° C | 27% | 1019.5 hPa | 0 mm | - | 200 W/m² | - |
| 1788219221 | 31.11° C | 27% | 1019.5 hPa | 0 mm | - | 263 W/m² | - |
| 1788218321 | 31.11° C | 25% | 1019.3 hPa | 0 mm | - | 457 W/m² | - |
| 1788217421 | 30° C | 26% | 1019.5 hPa | 0 mm | - | 263 W/m² | - |
| 1788216521 | 30° C | 27% | 1019.7 hPa | 0 mm | - | 208 W/m² | - |
| 1788215621 | 31.11° C | 25% | 1019.8 hPa | 0 mm | - | 388 W/m² | - |
| 1788214721 | 30.56° C | 26% | 1020.1 hPa | 0 mm | - | 269 W/m² | - |
| 1788213821 | 29.44° C | 28% | 1020.1 hPa | 0 mm | - | 307 W/m² | - |
| 1788212921 | 29.44° C | 28% | 1020.2 hPa | 0 mm | - | 278 W/m² | - |
| 1788212021 | 30° C | 27% | 1020.3 hPa | 0 mm | - | 196 W/m² | - |
| 1788211121 | 30.56° C | 26% | 1020.4 hPa | 0 mm | - | 374 W/m² | - |
| 1788210221 | 29.44° C | 28% | 1020.5 hPa | 0 mm | - | 492 W/m² | - |
| 1788209321 | 30° C | 26% | 1020.8 hPa | 0 mm | - | 288 W/m² | - |
| 1788208421 | 29.44° C | 26% | 1020.8 hPa | 0 mm | - | 597 W/m² | - |
| 1788207521 | 28.89° C | 28% | 1021.1 hPa | 0 mm | - | 304 W/m² | - |
| 1788206621 | 28.89° C | 26% | 1021.2 hPa | 0 mm | - | 367 W/m² | - |
| 1788205721 | 28.33° C | 28% | 1021.4 hPa | 0 mm | - | 377 W/m² | - |
| 1788204821 | 27.78° C | 28% | 1021.7 hPa | 0 mm | - | 266 W/m² | - |
| 1788203921 | 27.78° C | 30% | 1021.8 hPa | 0 mm | - | 333 W/m² | - |
| 1788203021 | 27.78° C | 30% | 1021.9 hPa | 0 mm | - | 388 W/m² | - |
| 1788202121 | 27.22° C | 30% | 1022.1 hPa | 0 mm | - | 331 W/m² | - |
| 1788201221 | 27.78° C | 29% | 1022.2 hPa | 0 mm | - | 336 W/m² | - |
| 1788200321 | 27.22° C | 30% | 1022.2 hPa | 0 mm | - | 316 W/m² | - |
| 1788199421 | 26.67° C | 32% | 1022.3 hPa | 0 mm | - | 330 W/m² | - |
* Rain since midnight (hover to see other rain measurements)
** Current wind speed in m/s (hover to see current wind gust speed)